Time;durP1;ratioP1;P1;durP2;ratioP2;P2;SDS_P1;SDS_P2;PMS_P1;PMS_P2;Temp;Humidity;BMP_temperature;BMP_pressure;BME280_temperature;BME280_humidity;BME280_pressure;Samples;Min_cycle;Max_cycle;Signal;HPM_P1;HPM_P2
2022/01/29 00:00:08;;;;;;;43.00;23.45;;;;;;;;;;5053019;28;20506;-67
2022/01/29 00:02:34;;;;;;;50.33;24.30;;;;;;;;;;5085383;28;20517;-67
2022/01/29 00:05:01;;;;;;;45.20;23.30;;;;;;;;;;5052403;28;20471;-67
2022/01/29 00:07:27;;;;;;;52.00;23.98;;;;;;;;;;5053124;28;20094;-67
2022/01/29 00:10:00;;;;;;;41.80;20.50;;;;;;;;;;5051771;28;20056;-67
2022/01/29 00:12:26;;;;;;;56.65;25.65;;;;;;;;;;5052290;28;20157;-67
2022/01/29 00:14:52;;;;;;;49.92;25.70;;;;;;;;;;5051663;28;20045;-67
2022/01/29 00:17:18;;;;;;;47.67;24.42;;;;;;;;;;5053034;28;20129;-67
2022/01/29 00:19:44;;;;;;;59.22;27.13;;;;;;;;;;5052009;28;20049;-67
2022/01/29 00:22:10;;;;;;;55.22;27.98;;;;;;;;;;5052783;28;20040;-67
2022/01/29 00:24:36;;;;;;;56.00;27.95;;;;;;;;;;5052368;28;20116;-67
2022/01/29 00:27:08;;;;;;;60.83;27.10;;;;;;;;;;5067025;28;20048;-67
2022/01/29 00:29:35;;;;;;;50.30;27.73;;;;;;;;;;5072456;28;20044;-67
2022/01/29 00:32:01;;;;;;;53.47;28.40;;;;;;;;;;5105005;28;20049;-67
2022/01/29 00:34:27;;;;;;;61.03;29.42;;;;;;;;;;5070471;28;20109;-67
2022/01/29 00:36:53;;;;;;;48.47;28.13;;;;;;;;;;5104743;28;20037;-68
2022/01/29 00:39:19;;;;;;;65.03;31.52;;;;;;;;;;5070989;28;20419;-68
2022/01/29 00:41:45;;;;;;;60.67;30.48;;;;;;;;;;5071815;28;20048;-68
2022/01/29 00:44:11;;;;;;;62.33;31.35;;;;;;;;;;5072248;28;20048;-68
2022/01/29 00:46:41;;;;;;;56.55;27.23;;;;;;;;;;5072298;28;20665;-68
2022/01/29 00:49:07;;;;;;;58.70;28.10;;;;;;;;;;5071467;28;20051;-68
2022/01/29 00:51:33;;;;;;;53.70;28.13;;;;;;;;;;5072166;28;20045;-68
2022/01/29 00:53:59;;;;;;;64.78;29.83;;;;;;;;;;5071958;28;20085;-68
2022/01/29 00:56:25;;;;;;;55.42;29.23;;;;;;;;;;5071899;28;20395;-68
2022/01/29 00:58:51;;;;;;;57.40;29.10;;;;;;;;;;5071304;28;20467;-68
2022/01/29 01:01:17;;;;;;;63.00;29.80;;;;;;;;;;5071819;28;20064;-67
2022/01/29 01:03:43;;;;;;;52.17;28.55;;;;;;;;;;5071957;28;20040;-67
2022/01/29 01:06:09;;;;;;;56.83;28.42;;;;;;;;;;5071107;28;20479;-67
2022/01/29 01:08:36;;;;;;;59.50;30.88;;;;;;;;;;5072004;28;20048;-67
2022/01/29 01:11:04;;;;;;;52.33;28.33;;;;;;;;;;5071900;28;20041;-67
2022/01/29 01:13:31;;;;;;;52.40;25.50;;;;;;;;;;5071052;28;20040;-67
2022/01/29 01:15:57;;;;;;;53.08;27.83;;;;;;;;;;5071631;28;20055;-67
2022/01/29 01:18:23;;;;;;;61.50;28.98;;;;;;;;;;5071920;28;20044;-67
2022/01/29 01:20:49;;;;;;;56.95;29.65;;;;;;;;;;5070835;28;20083;-67
2022/01/29 01:23:15;;;;;;;55.28;29.05;;;;;;;;;;5071855;28;20075;-67
2022/01/29 01:25:41;;;;;;;55.25;28.15;;;;;;;;;;5071161;28;20052;-67
2022/01/29 01:28:07;;;;;;;56.72;29.70;;;;;;;;;;5070645;28;20464;-67
2022/01/29 01:30:35;;;;;;;57.42;28.33;;;;;;;;;;5071740;28;20063;-67
2022/01/29 01:33:02;;;;;;;56.42;27.70;;;;;;;;;;5071567;28;20068;-67
2022/01/29 01:35:34;;;;;;;59.47;28.83;;;;;;;;;;5070684;28;20048;-67
2022/01/29 01:40:59;;;;;;;49.85;25.95;;;;;;;;;;5059986;28;20106;-67
2022/01/29 01:43:25;;;;;;;49.92;24.98;;;;;;;;;;5070464;28;20098;-67
2022/01/29 01:45:51;;;;;;;52.00;26.67;;;;;;;;;;5070190;28;20048;-67
2022/01/29 01:48:17;;;;;;;56.28;27.98;;;;;;;;;;5069927;28;20102;-67
2022/01/29 01:50:43;;;;;;;55.35;28.10;;;;;;;;;;5071313;28;20376;-67
2022/01/29 01:53:10;;;;;;;49.50;26.75;;;;;;;;;;5071257;28;20052;-67
2022/01/29 01:55:37;;;;;;;47.10;25.42;;;;;;;;;;5071420;28;20036;-67
2022/01/29 01:58:03;;;;;;;53.25;28.02;;;;;;;;;;5069760;28;20053;-67
2022/01/29 02:00:29;;;;;;;59.90;29.33;;;;;;;;;;5069937;28;20604;-67
2022/01/29 02:02:56;;;;;;;47.85;25.27;;;;;;;;;;5071469;28;20091;-67
2022/01/29 02:05:22;;;;;;;56.38;27.67;;;;;;;;;;5070730;28;20041;-67
2022/01/29 02:07:48;;;;;;;54.10;26.52;;;;;;;;;;5071302;28;20154;-67
2022/01/29 02:10:16;;;;;;;52.70;26.42;;;;;;;;;;5053258;28;20048;-67
2022/01/29 02:13:01;;;;;;;63.38;28.63;;;;;;;;;;5074358;28;20067;-67
2022/01/29 02:15:28;;;;;;;64.40;28.52;;;;;;;;;;5075258;28;20037;-67
2022/01/29 02:17:55;;;;;;;56.53;28.02;;;;;;;;;;5074668;28;20040;-67
2022/01/29 02:20:25;;;;;;;66.10;30.90;;;;;;;;;;5075219;28;20518;-67
2022/01/29 02:22:51;;;;;;;52.05;23.40;;;;;;;;;;5075122;28;20040;-67
2022/01/29 02:25:30;;;;;;;66.72;28.52;;;;;;;;;;5074174;28;20547;-67
2022/01/29 02:28:00;;;;;;;58.13;28.55;;;;;;;;;;5074368;28;20091;-67
2022/01/29 02:30:29;;;;;;;44.13;21.25;;;;;;;;;;5073370;28;20040;-67
2022/01/29 02:32:57;;;;;;;60.85;28.95;;;;;;;;;;5074246;28;20048;-67
2022/01/29 02:35:23;;;;;;;60.22;27.40;;;;;;;;;;5074441;28;20094;-67
2022/01/29 02:37:51;;;;;;;59.45;29.60;;;;;;;;;;5107397;28;20080;-67
2022/01/29 02:40:18;;;;;;;68.53;28.33;;;;;;;;;;5106611;28;20098;-67
2022/01/29 02:42:44;;;;;;;62.15;28.50;;;;;;;;;;5074712;28;20044;-67
2022/01/29 02:45:10;;;;;;;57.03;25.77;;;;;;;;;;5074469;28;20499;-67
2022/01/29 02:47:37;;;;;;;60.53;28.77;;;;;;;;;;5074111;28;20040;-67
2022/01/29 02:50:03;;;;;;;63.17;27.50;;;;;;;;;;5074220;28;20055;-67
2022/01/29 02:52:29;;;;;;;60.50;27.63;;;;;;;;;;5074438;28;20044;-67
2022/01/29 02:54:55;;;;;;;59.50;26.63;;;;;;;;;;5072590;28;20079;-67
2022/01/29 02:57:21;;;;;;;62.88;27.05;;;;;;;;;;5074345;28;20052;-67
2022/01/29 02:59:47;;;;;;;69.00;27.65;;;;;;;;;;5106846;28;20036;-67
2022/01/29 03:02:13;;;;;;;65.43;27.58;;;;;;;;;;5073781;28;20043;-67
2022/01/29 03:04:39;;;;;;;63.28;25.83;;;;;;;;;;5073532;28;20039;-67
2022/01/29 03:07:05;;;;;;;63.30;25.58;;;;;;;;;;5073115;28;20056;-67
2022/01/29 03:09:31;;;;;;;64.28;25.58;;;;;;;;;;5074148;28;20044;-67
2022/01/29 03:11:59;;;;;;;55.10;24.30;;;;;;;;;;5073531;28;20386;-67
2022/01/29 03:14:25;;;;;;;57.65;24.92;;;;;;;;;;5073985;28;20036;-67
2022/01/29 03:16:51;;;;;;;65.60;23.92;;;;;;;;;;5074162;28;20043;-67
2022/01/29 03:19:17;;;;;;;54.13;22.58;;;;;;;;;;5105840;28;20071;-68
2022/01/29 03:21:43;;;;;;;64.60;24.05;;;;;;;;;;5073848;28;20070;-68
2022/01/29 03:24:09;;;;;;;60.20;23.13;;;;;;;;;;5072983;28;20044;-68
2022/01/29 03:26:35;;;;;;;59.72;23.02;;;;;;;;;;5072689;28;20060;-67
2022/01/29 03:29:01;;;;;;;54.88;22.63;;;;;;;;;;5073859;28;20055;-67
2022/01/29 03:31:28;;;;;;;51.92;22.27;;;;;;;;;;5072268;28;20041;-67
2022/01/29 03:33:54;;;;;;;48.42;22.35;;;;;;;;;;5072741;28;20044;-67
2022/01/29 03:36:20;;;;;;;51.63;22.92;;;;;;;;;;5072222;28;20044;-67
2022/01/29 03:38:46;;;;;;;48.30;21.15;;;;;;;;;;5073683;28;20041;-67
2022/01/29 03:41:13;;;;;;;51.50;22.35;;;;;;;;;;5072744;28;20123;-67
2022/01/29 03:43:47;;;;;;;47.75;21.88;;;;;;;;;;5073569;28;20076;-67
2022/01/29 03:46:13;;;;;;;47.17;21.65;;;;;;;;;;5073196;28;20048;-67
2022/01/29 03:48:39;;;;;;;54.25;22.15;;;;;;;;;;5072762;28;20040;-67
2022/01/29 03:51:06;;;;;;;53.70;21.83;;;;;;;;;;5073375;28;20056;-67
2022/01/29 03:53:32;;;;;;;54.60;22.58;;;;;;;;;;5073297;28;20044;-67
2022/01/29 03:55:58;;;;;;;52.05;22.80;;;;;;;;;;5072756;28;20442;-67
2022/01/29 03:58:24;;;;;;;52.95;22.00;;;;;;;;;;5073309;28;20418;-67
2022/01/29 04:00:51;;;;;;;47.33;22.17;;;;;;;;;;5073167;28;20040;-67
2022/01/29 04:03:17;;;;;;;49.92;22.80;;;;;;;;;;5072629;28;20044;-67
2022/01/29 04:05:43;;;;;;;50.72;22.85;;;;;;;;;;5071646;28;20048;-67
2022/01/29 04:08:15;;;;;;;51.00;23.17;;;;;;;;;;5071648;28;20164;-67
2022/01/29 04:10:42;;;;;;;51.40;22.27;;;;;;;;;;5072412;28;20132;-67
2022/01/29 04:13:11;;;;;;;44.10;21.88;;;;;;;;;;5072903;28;20040;-67
2022/01/29 04:15:37;;;;;;;46.33;21.27;;;;;;;;;;5072795;28;20040;-67
2022/01/29 04:18:03;;;;;;;42.15;21.83;;;;;;;;;;5071098;28;20036;-67
2022/01/29 04:20:29;;;;;;;49.58;23.08;;;;;;;;;;5072921;28;20094;-67
2022/01/29 04:22:55;;;;;;;47.17;22.23;;;;;;;;;;5072486;28;20044;-67
2022/01/29 04:25:23;;;;;;;43.47;21.80;;;;;;;;;;5071413;28;20048;-67
2022/01/29 04:27:49;;;;;;;51.08;22.80;;;;;;;;;;5072721;28;20162;-67
2022/01/29 04:30:30;;;;;;;50.92;22.90;;;;;;;;;;5071244;28;20510;-67
2022/01/29 04:33:04;;;;;;;49.28;22.73;;;;;;;;;;5104099;28;20040;-67
2022/01/29 04:35:31;;;;;;;50.03;22.27;;;;;;;;;;5071393;28;20043;-67
2022/01/29 04:37:57;;;;;;;46.67;22.02;;;;;;;;;;5072283;28;20032;-67
2022/01/29 04:40:23;;;;;;;55.30;23.83;;;;;;;;;;5071878;28;20033;-68
2022/01/29 04:42:49;;;;;;;52.17;23.05;;;;;;;;;;5072326;28;20109;-68
2022/01/29 04:45:15;;;;;;;41.65;22.38;;;;;;;;;;5072335;28;20455;-68
2022/01/29 04:47:41;;;;;;;42.97;22.33;;;;;;;;;;5071848;28;20428;-68
2022/01/29 04:50:07;;;;;;;48.38;21.67;;;;;;;;;;5072093;28;20089;-68
2022/01/29 04:52:33;;;;;;;46.85;22.20;;;;;;;;;;5072230;28;20579;-68
2022/01/29 04:54:59;;;;;;;39.42;21.23;;;;;;;;;;5071314;28;20494;-68
2022/01/29 04:57:26;;;;;;;41.92;20.67;;;;;;;;;;5072107;28;20076;-68
2022/01/29 04:59:52;;;;;;;42.28;21.48;;;;;;;;;;5072219;28;20036;-67
2022/01/29 05:02:18;;;;;;;44.72;20.90;;;;;;;;;;5071410;28;20040;-67
2022/01/29 05:04:44;;;;;;;45.20;19.65;;;;;;;;;;5071624;28;20079;-67
2022/01/29 05:07:10;;;;;;;42.20;20.50;;;;;;;;;;5070371;28;20037;-67
2022/01/29 05:09:36;;;;;;;48.13;21.02;;;;;;;;;;5070030;28;20048;-67
2022/01/29 05:12:02;;;;;;;44.45;20.67;;;;;;;;;;5087092;28;20052;-67
2022/01/29 05:27:35;;;;;;;40.22;20.55;;;;;;;;;;5051752;28;20053;-67
2022/01/29 05:30:01;;;;;;;45.78;21.00;;;;;;;;;;5051644;28;20040;-67
2022/01/29 05:32:27;;;;;;;42.45;20.25;;;;;;;;;;5050974;28;20123;-67
2022/01/29 05:34:53;;;;;;;33.97;20.35;;;;;;;;;;5051595;28;20045;-67
2022/01/29 05:37:19;;;;;;;41.50;19.90;;;;;;;;;;5051472;28;20041;-67
2022/01/29 05:39:45;;;;;;;45.35;21.10;;;;;;;;;;5050642;28;20078;-67
2022/01/29 05:42:11;;;;;;;39.00;19.45;;;;;;;;;;5051518;28;20041;-67
2022/01/29 05:44:37;;;;;;;41.90;20.25;;;;;;;;;;5051648;28;20091;-67
2022/01/29 05:47:04;;;;;;;40.75;20.20;;;;;;;;;;5050327;28;20048;-67
2022/01/29 05:49:30;;;;;;;45.15;20.73;;;;;;;;;;5051471;28;20052;-67
2022/01/29 05:51:56;;;;;;;41.85;19.67;;;;;;;;;;5051540;28;20041;-67
2022/01/29 05:54:22;;;;;;;43.85;19.50;;;;;;;;;;5050585;28;20072;-67
2022/01/29 05:56:48;;;;;;;38.95;20.27;;;;;;;;;;5051505;28;20044;-67
2022/01/29 05:59:14;;;;;;;36.80;19.50;;;;;;;;;;5051502;28;20037;-67
2022/01/29 06:01:40;;;;;;;37.47;19.10;;;;;;;;;;5050712;28;20645;-67
2022/01/29 06:04:06;;;;;;;37.17;18.77;;;;;;;;;;5051326;28;20395;-67
2022/01/29 06:06:33;;;;;;;38.20;18.60;;;;;;;;;;5051280;28;20044;-67
2022/01/29 06:09:01;;;;;;;38.08;18.15;;;;;;;;;;5050490;28;20039;-67
2022/01/29 06:11:28;;;;;;;37.40;18.45;;;;;;;;;;5051323;28;20387;-67
2022/01/29 06:13:54;;;;;;;34.85;17.00;;;;;;;;;;5051055;28;20065;-67
2022/01/29 06:16:20;;;;;;;44.33;17.55;;;;;;;;;;5050659;28;20103;-67
2022/01/29 06:18:46;;;;;;;37.10;17.42;;;;;;;;;;5050960;28;20040;-67
2022/01/29 06:21:15;;;;;;;33.03;16.65;;;;;;;;;;5051254;28;20047;-67
2022/01/29 06:23:42;;;;;;;35.22;17.60;;;;;;;;;;5048829;28;20107;-67
2022/01/29 06:26:09;;;;;;;30.13;15.95;;;;;;;;;;5058622;28;20556;-67
2022/01/29 06:28:35;;;;;;;33.33;15.23;;;;;;;;;;5071072;28;20095;-67
2022/01/29 06:31:02;;;;;;;30.33;14.88;;;;;;;;;;5070414;28;20036;-67
2022/01/29 06:33:28;;;;;;;26.75;13.77;;;;;;;;;;5069372;28;20071;-67
2022/01/29 06:35:55;;;;;;;27.52;14.57;;;;;;;;;;5071097;28;20045;-67
2022/01/29 06:38:21;;;;;;;27.02;13.98;;;;;;;;;;5069029;28;20520;-67
2022/01/29 06:40:47;;;;;;;27.92;13.35;;;;;;;;;;5071095;28;20138;-67
2022/01/29 06:43:13;;;;;;;26.75;13.93;;;;;;;;;;5070942;28;20123;-67
2022/01/29 06:45:40;;;;;;;25.52;13.85;;;;;;;;;;5069897;28;20424;-67
2022/01/29 06:48:06;;;;;;;23.35;12.38;;;;;;;;;;5070993;28;20379;-67
2022/01/29 06:50:33;;;;;;;25.08;11.80;;;;;;;;;;5070894;28;20467;-67
2022/01/29 06:52:59;;;;;;;27.83;12.95;;;;;;;;;;5102335;28;20040;-67
2022/01/29 06:55:25;;;;;;;33.25;12.55;;;;;;;;;;5070938;28;20447;-67
2022/01/29 06:57:51;;;;;;;21.52;12.40;;;;;;;;;;5072032;28;20032;-67
2022/01/29 07:00:17;;;;;;;29.27;11.38;;;;;;;;;;5073785;28;20055;-67
2022/01/29 07:02:43;;;;;;;21.13;12.00;;;;;;;;;;5074579;28;20032;-67
2022/01/29 07:05:10;;;;;;;26.75;12.55;;;;;;;;;;5074337;28;20040;-67
2022/01/29 07:07:36;;;;;;;28.75;12.95;;;;;;;;;;5073567;28;20479;-66
2022/01/29 07:10:03;;;;;;;27.20;13.23;;;;;;;;;;5074033;28;20056;-67
2022/01/29 07:12:29;;;;;;;26.15;13.23;;;;;;;;;;5074109;28;20079;-67
2022/01/29 07:14:55;;;;;;;25.30;13.15;;;;;;;;;;5072988;28;20040;-67
2022/01/29 07:17:24;;;;;;;38.00;13.95;;;;;;;;;;5074176;28;20439;-67
2022/01/29 07:19:51;;;;;;;27.30;13.60;;;;;;;;;;5074450;28;20481;-67
2022/01/29 07:22:18;;;;;;;28.50;13.15;;;;;;;;;;5073417;28;20064;-67
2022/01/29 07:24:44;;;;;;;27.08;14.35;;;;;;;;;;5073665;28;20056;-66
2022/01/29 07:27:10;;;;;;;26.65;13.65;;;;;;;;;;5057303;28;20037;-67
2022/01/29 07:29:36;;;;;;;30.27;14.07;;;;;;;;;;5053040;28;20037;-66
2022/01/29 07:32:03;;;;;;;28.90;13.73;;;;;;;;;;5052372;28;20111;-67
2022/01/29 07:34:29;;;;;;;24.10;12.80;;;;;;;;;;5053590;28;20373;-67
2022/01/29 07:36:55;;;;;;;26.02;13.05;;;;;;;;;;5053015;28;20107;-66
2022/01/29 07:39:22;;;;;;;25.10;13.70;;;;;;;;;;5052227;28;20041;-66
2022/01/29 07:41:48;;;;;;;37.38;14.93;;;;;;;;;;5053805;28;20706;-67
2022/01/29 07:44:15;;;;;;;28.80;14.52;;;;;;;;;;5053041;28;20049;-67
2022/01/29 07:46:41;;;;;;;30.80;14.05;;;;;;;;;;5053589;28;20439;-67
2022/01/29 07:49:08;;;;;;;28.02;14.55;;;;;;;;;;5053343;28;20072;-67
2022/01/29 07:51:34;;;;;;;25.92;14.05;;;;;;;;;;5052383;28;20045;-67
2022/01/29 07:54:00;;;;;;;28.63;13.50;;;;;;;;;;5053242;28;20131;-67
2022/01/29 07:56:26;;;;;;;30.35;13.60;;;;;;;;;;5053282;28;20107;-67
2022/01/29 07:58:52;;;;;;;20.80;12.82;;;;;;;;;;5052674;28;20033;-67
2022/01/29 08:01:18;;;;;;;27.00;12.88;;;;;;;;;;5053309;28;20047;-67
2022/01/29 08:03:50;;;;;;;26.48;12.73;;;;;;;;;;5052805;28;20452;-67
2022/01/29 08:06:16;;;;;;;25.15;12.43;;;;;;;;;;5052626;28;20518;-67
2022/01/29 08:08:42;;;;;;;30.20;12.52;;;;;;;;;;5052363;28;20049;-67
2022/01/29 08:11:09;;;;;;;26.35;12.32;;;;;;;;;;5053118;28;20064;-67
2022/01/29 08:13:36;;;;;;;21.50;11.18;;;;;;;;;;5051991;28;20049;-66
2022/01/29 08:16:02;;;;;;;23.27;11.70;;;;;;;;;;5052901;28;20037;-67
2022/01/29 08:18:28;;;;;;;25.80;11.63;;;;;;;;;;5052848;28;20109;-67
2022/01/29 08:20:54;;;;;;;21.85;11.30;;;;;;;;;;5050805;28;20065;-67
2022/01/29 08:23:20;;;;;;;23.63;11.23;;;;;;;;;;5084474;28;20045;-67
2022/01/29 08:25:46;;;;;;;17.55;10.05;;;;;;;;;;5055629;28;20128;-66
2022/01/29 08:28:12;;;;;;;17.48;10.65;;;;;;;;;;5070638;28;20557;-66
2022/01/29 08:30:38;;;;;;;17.20;9.25;;;;;;;;;;5071338;28;20432;-67
2022/01/29 08:33:06;;;;;;;22.50;9.85;;;;;;;;;;5071247;28;20044;-66
2022/01/29 08:35:32;;;;;;;22.98;8.43;;;;;;;;;;5103116;28;20582;-66
2022/01/29 08:37:59;;;;;;;17.52;8.43;;;;;;;;;;5070984;28;20066;-67
2022/01/29 08:40:25;;;;;;;17.10;7.22;;;;;;;;;;5070772;28;20119;-67
2022/01/29 08:42:51;;;;;;;14.55;7.55;;;;;;;;;;5070535;28;20495;-67
2022/01/29 08:45:17;;;;;;;15.63;7.53;;;;;;;;;;5070993;28;20048;-67
2022/01/29 08:47:44;;;;;;;15.93;7.25;;;;;;;;;;5071056;28;20044;-67
2022/01/29 08:50:11;;;;;;;14.57;6.90;;;;;;;;;;5069865;28;20044;-67
2022/01/29 08:52:37;;;;;;;15.77;7.07;;;;;;;;;;5070737;28;20048;-66
2022/01/29 08:55:04;;;;;;;15.18;6.85;;;;;;;;;;5070305;28;20036;-66
2022/01/29 08:57:30;;;;;;;13.18;6.68;;;;;;;;;;5070469;28;20398;-67
2022/01/29 08:59:56;;;;;;;18.27;7.07;;;;;;;;;;5070564;28;20036;-67
2022/01/29 09:02:22;;;;;;;15.63;6.72;;;;;;;;;;5070820;28;20097;-68
2022/01/29 09:04:49;;;;;;;17.15;7.05;;;;;;;;;;5103133;28;20056;-67
2022/01/29 09:07:15;;;;;;;14.75;6.15;;;;;;;;;;5070233;28;20037;-67
2022/01/29 09:09:44;;;;;;;14.43;6.20;;;;;;;;;;5070276;28;20044;-67
2022/01/29 09:12:10;;;;;;;15.20;6.43;;;;;;;;;;5070583;28;20137;-67
2022/01/29 09:14:36;;;;;;;13.18;6.90;;;;;;;;;;5069724;28;20036;-66
2022/01/29 09:17:02;;;;;;;17.00;6.70;;;;;;;;;;5071042;28;20039;-66
2022/01/29 09:19:28;;;;;;;19.45;7.45;;;;;;;;;;5102759;28;20044;-67
2022/01/29 09:21:54;;;;;;;13.48;5.93;;;;;;;;;;5069436;28;20043;-67
2022/01/29 09:24:20;;;;;;;18.90;7.28;;;;;;;;;;5070360;28;20471;-66
2022/01/29 09:26:46;;;;;;;15.23;7.53;;;;;;;;;;5069985;28;20056;-66
2022/01/29 09:29:12;;;;;;;16.75;7.05;;;;;;;;;;5069557;28;20130;-66
2022/01/29 09:31:38;;;;;;;15.07;6.82;;;;;;;;;;5070359;28;20043;-67
2022/01/29 09:34:04;;;;;;;13.50;6.15;;;;;;;;;;5070388;28;20033;-66
2022/01/29 09:36:30;;;;;;;12.98;6.18;;;;;;;;;;5069508;28;20059;-67
2022/01/29 09:38:56;;;;;;;14.73;6.68;;;;;;;;;;5070257;28;20036;-67
2022/01/29 09:41:26;;;;;;;15.52;6.68;;;;;;;;;;5070209;28;20043;-66
2022/01/29 09:43:53;;;;;;;14.38;6.25;;;;;;;;;;5069516;28;20040;-66
2022/01/29 09:46:19;;;;;;;15.75;6.20;;;;;;;;;;5069963;28;20051;-67
2022/01/29 09:48:46;;;;;;;16.17;5.93;;;;;;;;;;5068823;28;20040;-67
2022/01/29 09:51:13;;;;;;;13.82;5.63;;;;;;;;;;5068114;28;20090;-67
2022/01/29 09:53:43;;;;;;;16.48;5.47;;;;;;;;;;5069988;28;20044;-67
2022/01/29 09:56:18;;;;;;;12.95;5.25;;;;;;;;;;5070086;28;20036;-67
2022/01/29 09:58:44;;;;;;;10.80;4.72;;;;;;;;;;5069389;28;20036;-67
2022/01/29 10:01:10;;;;;;;11.32;5.10;;;;;;;;;;5070089;28;20040;-67
2022/01/29 10:03:36;;;;;;;9.35;4.95;;;;;;;;;;5069959;28;20548;-67
2022/01/29 10:06:03;;;;;;;11.05;5.43;;;;;;;;;;5069256;28;20120;-67
2022/01/29 10:08:29;;;;;;;11.18;5.35;;;;;;;;;;5069934;28;20074;-67
2022/01/29 10:10:59;;;;;;;10.23;4.78;;;;;;;;;;5069612;28;20051;-66
2022/01/29 10:13:25;;;;;;;13.40;4.57;;;;;;;;;;5067626;28;20102;-67
2022/01/29 10:15:52;;;;;;;14.32;5.30;;;;;;;;;;5069926;28;20044;-66
2022/01/29 10:18:22;;;;;;;11.02;4.68;;;;;;;;;;5069858;28;20036;-66
2022/01/29 10:20:48;;;;;;;15.68;4.85;;;;;;;;;;5069365;28;20410;-67
2022/01/29 10:23:14;;;;;;;10.05;4.13;;;;;;;;;;5069847;28;20139;-67
2022/01/29 10:25:42;;;;;;;10.25;4.03;;;;;;;;;;5069210;28;20048;-67
2022/01/29 10:28:09;;;;;;;10.75;4.30;;;;;;;;;;5068830;28;20044;-67
2022/01/29 10:30:36;;;;;;;12.40;3.95;;;;;;;;;;5069697;28;20043;-67
2022/01/29 10:33:22;;;;;;;9.00;3.25;;;;;;;;;;5072674;28;20086;-67
2022/01/29 10:35:49;;;;;;;9.95;3.97;;;;;;;;;;5105231;28;20403;-66
2022/01/29 10:38:19;;;;;;;12.68;3.80;;;;;;;;;;5073480;28;20041;-66
2022/01/29 10:40:45;;;;;;;8.57;3.55;;;;;;;;;;5073392;28;20295;-66
2022/01/29 10:43:11;;;;;;;12.45;4.38;;;;;;;;;;5072747;28;20154;-66
2022/01/29 10:45:37;;;;;;;9.95;3.58;;;;;;;;;;5073266;28;20044;-66
2022/01/29 10:48:06;;;;;;;11.20;3.60;;;;;;;;;;5105763;28;20049;-67
2022/01/29 10:50:32;;;;;;;10.52;5.03;;;;;;;;;;5072190;28;20375;-66
2022/01/29 10:52:59;;;;;;;9.73;3.70;;;;;;;;;;5073262;28;20526;-68
2022/01/29 10:55:25;;;;;;;12.18;3.65;;;;;;;;;;5073231;28;20047;-67
2022/01/29 10:57:51;;;;;;;12.13;3.80;;;;;;;;;;5072719;28;20029;-67
2022/01/29 11:00:17;;;;;;;12.77;4.15;;;;;;;;;;5073059;28;20047;-67
2022/01/29 11:02:44;;;;;;;9.55;3.15;;;;;;;;;;5073340;28;20041;-67
2022/01/29 11:05:10;;;;;;;9.35;3.33;;;;;;;;;;5072212;28;20058;-67
2022/01/29 11:07:37;;;;;;;8.57;2.92;;;;;;;;;;5072989;28;20068;-67
2022/01/29 11:10:07;;;;;;;12.68;4.20;;;;;;;;;;5105470;28;20515;-67
2022/01/29 11:12:33;;;;;;;8.13;3.53;;;;;;;;;;5071891;28;20497;-67
2022/01/29 11:15:00;;;;;;;13.13;3.08;;;;;;;;;;5072485;28;20033;-67
2022/01/29 11:17:28;;;;;;;12.45;3.10;;;;;;;;;;5072409;28;20076;-67
2022/01/29 11:19:54;;;;;;;9.75;3.42;;;;;;;;;;5071861;28;20037;-67
2022/01/29 11:22:24;;;;;;;9.55;3.25;;;;;;;;;;5072720;28;20087;-67
2022/01/29 11:24:55;;;;;;;11.85;3.10;;;;;;;;;;5072370;28;20052;-67
2022/01/29 11:27:23;;;;;;;9.32;3.20;;;;;;;;;;5053600;28;20120;-67
2022/01/29 11:30:03;;;;;;;10.18;2.97;;;;;;;;;;5052308;28;20120;-67
2022/01/29 11:32:32;;;;;;;8.18;3.15;;;;;;;;;;5052444;28;20559;-67
2022/01/29 11:35:04;;;;;;;13.73;3.55;;;;;;;;;;5051440;28;20049;-67
2022/01/29 11:37:40;;;;;;;9.00;2.95;;;;;;;;;;5052534;28;20041;-67
2022/01/29 11:40:18;;;;;;;10.40;3.20;;;;;;;;;;5051142;28;20403;-67
2022/01/29 11:42:54;;;;;;;13.02;2.65;;;;;;;;;;5052231;28;20044;-67
2022/01/29 11:45:34;;;;;;;14.18;3.20;;;;;;;;;;5051848;28;20041;-67
2022/01/29 11:48:00;;;;;;;11.38;2.80;;;;;;;;;;5051448;28;20470;-67
2022/01/29 11:50:29;;;;;;;9.43;2.60;;;;;;;;;;5052186;28;20055;-67
2022/01/29 11:53:04;;;;;;;10.88;2.72;;;;;;;;;;5052118;28;20395;-67
2022/01/29 11:55:33;;;;;;;15.85;2.80;;;;;;;;;;5051441;28;20033;-67
2022/01/29 11:58:15;;;;;;;10.90;2.78;;;;;;;;;;5051826;28;20044;-67
2022/01/29 12:00:42;;;;;;;12.23;2.92;;;;;;;;;;5051902;28;20037;-67
2022/01/29 12:03:08;;;;;;;10.55;2.33;;;;;;;;;;5051281;28;20353;-67
2022/01/29 12:06:06;;;;;;;10.10;2.15;;;;;;;;;;5051797;28;20053;-67
2022/01/29 12:08:38;;;;;;;7.88;2.25;;;;;;;;;;5049952;28;20098;-67
2022/01/29 12:11:13;;;;;;;11.88;1.92;;;;;;;;;;5051202;28;20088;-67
2022/01/29 12:13:43;;;;;;;10.82;2.03;;;;;;;;;;5051604;28;20059;-67
2022/01/29 12:16:29;;;;;;;10.90;2.40;;;;;;;;;;5051883;28;20064;-67
2022/01/29 12:18:55;;;;;;;9.55;2.22;;;;;;;;;;5050612;28;20048;-67
2022/01/29 12:21:23;;;;;;;5.60;2.10;;;;;;;;;;5051655;28;20032;-67
2022/01/29 12:23:50;;;;;;;12.73;2.72;;;;;;;;;;5051523;28;20047;-67
2022/01/29 12:26:20;;;;;;;9.57;2.20;;;;;;;;;;5059324;28;20429;-67
2022/01/29 12:28:48;;;;;;;8.27;2.17;;;;;;;;;;5071278;28;20119;-67
2022/01/29 12:31:16;;;;;;;9.40;1.95;;;;;;;;;;5071232;28;20038;-67
2022/01/29 12:33:42;;;;;;;9.40;2.30;;;;;;;;;;5070556;28;20067;-67
2022/01/29 12:36:09;;;;;;;7.43;2.03;;;;;;;;;;5071314;28;20044;-67
2022/01/29 12:38:39;;;;;;;13.57;2.33;;;;;;;;;;5070934;28;20080;-67
2022/01/29 12:41:07;;;;;;;11.10;1.98;;;;;;;;;;5070523;28;20072;-67
2022/01/29 12:43:40;;;;;;;7.70;2.13;;;;;;;;;;5071041;28;20109;-67
2022/01/29 12:46:07;;;;;;;9.30;2.05;;;;;;;;;;5103560;28;20465;-67
2022/01/29 12:48:34;;;;;;;7.82;2.55;;;;;;;;;;5070187;28;20040;-67
2022/01/29 12:51:07;;;;;;;11.70;2.50;;;;;;;;;;5071088;28;20044;-67
2022/01/29 12:53:33;;;;;;;8.45;2.65;;;;;;;;;;5070510;28;20048;-67
2022/01/29 12:56:06;;;;;;;11.93;2.17;;;;;;;;;;5102066;28;20252;-67
2022/01/29 12:58:36;;;;;;;12.50;2.55;;;;;;;;;;5070421;28;20033;-67
2022/01/29 13:01:07;;;;;;;14.45;3.00;;;;;;;;;;5070556;28;20036;-67
2022/01/29 13:03:33;;;;;;;15.73;2.60;;;;;;;;;;5069755;28;20089;-67
2022/01/29 13:06:04;;;;;;;15.18;3.60;;;;;;;;;;5070723;28;20391;-67
2022/01/29 13:08:30;;;;;;;15.02;3.33;;;;;;;;;;5070707;28;20051;-67
2022/01/29 13:10:56;;;;;;;12.48;3.17;;;;;;;;;;5069981;28;20105;-67
2022/01/29 13:13:34;;;;;;;13.10;2.72;;;;;;;;;;5070472;28;20041;-67
2022/01/29 13:16:00;;;;;;;11.77;2.65;;;;;;;;;;5070553;28;20199;-67
2022/01/29 13:18:27;;;;;;;10.02;2.92;;;;;;;;;;5102277;28;20095;-67
2022/01/29 13:20:54;;;;;;;11.77;2.65;;;;;;;;;;5070581;28;20083;-67
2022/01/29 13:23:20;;;;;;;13.68;2.80;;;;;;;;;;5070494;28;20479;-67
2022/01/29 13:25:46;;;;;;;11.07;2.95;;;;;;;;;;5100562;28;20052;-67
2022/01/29 13:28:15;;;;;;;13.20;3.10;;;;;;;;;;5070263;28;20044;-67
2022/01/29 13:30:41;;;;;;;11.95;2.47;;;;;;;;;;5070282;28;20403;-67
2022/01/29 13:33:10;;;;;;;17.63;3.00;;;;;;;;;;5069505;28;20598;-67
2022/01/29 13:35:41;;;;;;;11.77;3.15;;;;;;;;;;5070231;28;20044;-67
2022/01/29 13:38:13;;;;;;;13.57;2.47;;;;;;;;;;5070334;28;20509;-67
2022/01/29 13:40:44;;;;;;;10.57;2.70;;;;;;;;;;5069800;28;20040;-67
2022/01/29 13:43:11;;;;;;;13.43;3.53;;;;;;;;;;5070384;28;20041;-67
2022/01/29 13:45:51;;;;;;;12.77;2.95;;;;;;;;;;5070194;28;20493;-67
2022/01/29 13:48:17;;;;;;;11.65;3.30;;;;;;;;;;5069509;28;20036;-67
2022/01/29 13:50:43;;;;;;;8.73;3.20;;;;;;;;;;5070264;28;20236;-67
2022/01/29 13:53:13;;;;;;;10.93;3.17;;;;;;;;;;5070178;28;20425;-67
2022/01/29 13:55:58;;;;;;;10.60;3.13;;;;;;;;;;5069540;28;20120;-67
2022/01/29 13:58:25;;;;;;;12.55;4.05;;;;;;;;;;5070290;28;20501;-67
2022/01/29 14:00:56;;;;;;;13.27;3.33;;;;;;;;;;5070051;28;20036;-67
2022/01/29 14:03:40;;;;;;;11.65;3.55;;;;;;;;;;5069692;28;20052;-67
2022/01/29 14:06:24;;;;;;;14.98;3.70;;;;;;;;;;5070290;28;20436;-67
2022/01/29 14:09:09;;;;;;;14.27;3.80;;;;;;;;;;5073126;28;20044;-67
2022/01/29 14:11:54;;;;;;;12.27;3.70;;;;;;;;;;5074177;28;20044;-67
2022/01/29 14:14:22;;;;;;;10.77;3.22;;;;;;;;;;5073721;28;20044;-66
2022/01/29 14:16:48;;;;;;;14.82;3.88;;;;;;;;;;5073437;28;20036;-66
2022/01/29 14:19:18;;;;;;;9.85;3.28;;;;;;;;;;5074058;28;20032;-67
2022/01/29 14:21:46;;;;;;;8.98;2.80;;;;;;;;;;5073939;28;20406;-67
2022/01/29 14:24:12;;;;;;;7.45;2.65;;;;;;;;;;5072735;28;20076;-67
2022/01/29 14:26:38;;;;;;;8.95;2.92;;;;;;;;;;5073372;28;20193;-66
2022/01/29 14:29:04;;;;;;;9.10;2.63;;;;;;;;;;5106325;28;20049;-66
2022/01/29 14:31:30;;;;;;;12.25;2.80;;;;;;;;;;5073037;28;20236;-66
2022/01/29 14:33:56;;;;;;;14.45;4.10;;;;;;;;;;5073178;28;20469;-66
2022/01/29 14:36:22;;;;;;;10.30;3.40;;;;;;;;;;5073512;28;20036;-67
2022/01/29 14:38:48;;;;;;;13.30;2.88;;;;;;;;;;5072769;28;20437;-67
2022/01/29 14:41:14;;;;;;;11.27;2.80;;;;;;;;;;5073609;28;20044;-67